Airport ID:9NM9
Update Time (UTC):19/01/2020 17:12
Wind Speed (Knots):11
Wind Direction (Magnetic):330
Temperature (°C):7.9
Dew Point (°C):-9.3
Humidity (%):28.7
Altimeter (inHg):30.39
Density Altitude (Feet):
Visibility (Miles):10
Clouds (Hundreds of feet):CLR
Present Weather:
METAR:METAR 9NM9 191710Z AUTO 34013KT 10SM CLR 08/M09 A3040 RMK AO2

The data displayed is for advisory purposes only and is not to be used for flight planning or operations.

This page is not automatically refreshed. Reload the page to see current data.